Time;durP1;ratioP1;P1;durP2;ratioP2;P2;SDS_P1;SDS_P2;PMS_P1;PMS_P2;Temp;Humidity;BMP_temperature;BMP_pressure;BME280_temperature;BME280_humidity;BME280_pressure;Samples;Min_cycle;Max_cycle;Signal;HPM_P1;HPM_P2
2022/10/18 00:02:01;;;;;;;52.17;31.42;;;;;;;13.36;100.00;102448.41;5096431;28;20031;-45
2022/10/18 00:04:26;;;;;;;49.58;30.38;;;;;;;13.36;100.00;102443.25;5095520;28;20012;-44
2022/10/18 00:06:52;;;;;;;55.85;32.67;;;;;;;13.37;100.00;102446.78;5096002;28;20433;-46
2022/10/18 00:09:17;;;;;;;61.78;33.70;;;;;;;13.37;100.00;102442.47;5095726;28;20421;-45
2022/10/18 00:11:42;;;;;;;53.53;31.77;;;;;;;13.36;100.00;102440.66;5095515;28;20024;-47
2022/10/18 00:14:07;;;;;;;61.35;31.77;;;;;;;13.36;100.00;102448.41;5096285;28;20483;-45
2022/10/18 00:16:33;;;;;;;54.42;32.22;;;;;;;13.34;100.00;102445.78;5095145;28;20024;-45
2022/10/18 00:18:58;;;;;;;51.08;30.80;;;;;;;13.35;100.00;102446.69;5096140;28;20063;-45
2022/10/18 00:21:24;;;;;;;50.53;31.42;;;;;;;13.33;100.00;102435.34;5096008;28;20036;-44
2022/10/18 00:23:51;;;;;;;46.40;28.92;;;;;;;13.28;100.00;102439.44;5094818;28;20028;-44
2022/10/18 00:26:20;;;;;;;56.97;30.93;;;;;;;13.32;100.00;102436.16;5095783;28;20032;-44
2022/10/18 00:28:50;;;;;;;45.58;28.73;;;;;;;13.30;100.00;102435.22;5095430;28;20448;-45
2022/10/18 00:31:21;;;;;;;45.88;28.95;;;;;;;13.31;100.00;102444.75;5095042;28;20551;-45
2022/10/18 00:33:50;;;;;;;49.67;30.10;;;;;;;13.33;100.00;102441.41;5095407;28;20391;-44
2022/10/18 00:36:15;;;;;;;57.83;31.30;;;;;;;13.34;100.00;102445.78;5095767;28;20016;-45
2022/10/18 00:38:40;;;;;;;58.00;29.10;;;;;;;13.33;100.00;102438.81;5094688;28;20024;-44
2022/10/18 00:41:08;;;;;;;47.90;27.70;;;;;;;13.34;100.00;102438.00;5095175;28;20052;-46
2022/10/18 00:43:50;;;;;;;51.05;28.33;;;;;;;13.37;100.00;102432.09;5095110;28;20528;-45
2022/10/18 00:46:15;;;;;;;50.70;30.98;;;;;;;13.33;100.00;102437.94;5094711;28;20024;-44
2022/10/18 00:48:40;;;;;;;56.25;32.28;;;;;;;13.34;100.00;102439.72;5095057;28;20103;-44
2022/10/18 00:51:06;;;;;;;49.58;31.42;;;;;;;13.35;100.00;102436.31;5095333;28;20035;-44
2022/10/18 00:53:31;;;;;;;52.10;31.88;;;;;;;13.30;100.00;102443.00;5094133;28;20035;-44
2022/10/18 00:55:57;;;;;;;51.22;31.35;;;;;;;13.31;100.00;102442.16;5095536;28;20028;-45
2022/10/18 00:58:22;;;;;;;53.88;30.67;;;;;;;13.30;100.00;102443.00;5095548;28;20056;-47
2022/10/18 01:00:47;;;;;;;48.08;30.67;;;;;;;13.29;100.00;102446.41;5094233;28;20024;-44
2022/10/18 01:03:13;;;;;;;43.10;28.58;;;;;;;13.27;100.00;102445.44;5095149;28;20032;-45
2022/10/18 01:05:43;;;;;;;46.80;27.55;;;;;;;13.20;100.00;102462.41;5094038;28;20016;-44
2022/10/18 01:08:28;;;;;;;48.03;29.80;;;;;;;13.17;100.00;102463.16;5094407;28;20540;-44
2022/10/18 01:11:28;;;;;;;45.22;27.77;;;;;;;13.18;100.00;102469.19;5094713;28;20460;-46
2022/10/18 01:14:04;;;;;;;50.75;30.48;;;;;;;13.16;100.00;102461.38;5093802;28;20480;-44
2022/10/18 01:16:58;;;;;;;51.43;30.50;;;;;;;13.18;100.00;102462.34;5094856;28;20023;-44
2022/10/18 01:19:38;;;;;;;54.45;32.55;;;;;;;13.20;100.00;102462.41;5094927;28;20028;-44
2022/10/18 01:22:10;;;;;;;60.75;33.35;;;;;;;13.18;100.00;102454.56;5094846;28;20039;-44
2022/10/18 01:24:48;;;;;;;52.90;31.58;;;;;;;13.18;100.00;102449.41;5094550;28;20024;-45
2022/10/18 01:27:27;;;;;;;50.28;29.45;;;;;;;13.14;100.00;102460.44;5094171;28;20031;-45
2022/10/18 01:30:30;;;;;;;44.33;29.10;;;;;;;13.18;100.00;102459.75;5094509;28;20028;-45
2022/10/18 01:33:19;;;;;;;51.72;29.88;;;;;;;13.15;100.00;102464.78;5094536;28;20084;-44
2022/10/18 01:36:07;;;;;;;46.20;28.35;;;;;;;13.17;100.00;102472.63;5093011;28;20043;-47
2022/10/18 01:38:35;;;;;;;56.65;31.35;;;;;;;13.11;100.00;102462.88;5094338;28;20103;-45
2022/10/18 01:41:03;;;;;;;53.65;30.35;;;;;;;13.11;100.00;102462.00;5093533;28;20048;-45
2022/10/18 01:43:30;;;;;;;52.42;31.48;;;;;;;13.11;100.00;102462.88;5094223;28;20028;-44
2022/10/18 01:45:58;;;;;;;56.03;32.85;;;;;;;13.15;100.00;102467.38;5094511;28;20063;-46
2022/10/18 01:48:24;;;;;;;54.00;30.63;;;;;;;13.12;100.00;102467.25;5093602;28;20028;-44
2022/10/18 01:50:50;;;;;;;65.20;31.55;;;;;;;13.12;100.00;102468.94;5094121;28;20027;-45
2022/10/18 01:53:24;;;;;;;58.70;31.52;;;;;;;13.08;100.00;102464.44;5094201;28;20032;-44
2022/10/18 01:56:00;;;;;;;50.63;30.83;;;;;;;13.07;100.00;102460.97;5093106;28;20473;-44
2022/10/18 01:58:39;;;;;;;44.88;28.15;;;;;;;12.93;100.00;102462.91;5094377;28;20161;-45
2022/10/18 02:01:12;;;;;;;40.47;27.60;;;;;;;12.87;100.00;102472.97;5094132;28;20028;-44
2022/10/18 02:03:45;;;;;;;45.90;27.42;;;;;;;12.84;100.00;102473.72;5092911;28;20028;-45
2022/10/18 02:06:21;;;;;;;52.05;31.25;;;;;;;12.88;100.00;102466.13;5093927;28;20084;-44
2022/10/18 02:08:56;;;;;;;59.35;33.05;;;;;;;12.93;100.00;102464.63;5093845;28;20081;-45
2022/10/18 02:11:22;;;;;;;48.63;30.88;;;;;;;12.91;100.00;102461.06;5093922;28;20072;-44
2022/10/18 02:13:52;;;;;;;55.20;32.20;;;;;;;12.89;100.00;102466.19;5093689;28;20107;-44
2022/10/18 02:16:29;;;;;;;51.45;32.08;;;;;;;12.93;100.00;102464.63;5093014;28;20027;-48
2022/10/18 02:19:04;;;;;;;52.13;31.23;;;;;;;12.88;100.00;102459.22;5093336;28;20021;-44
2022/10/18 02:21:31;;;;;;;51.47;30.58;;;;;;;12.84;100.00;102455.63;5093286;28;20032;-44
2022/10/18 02:23:58;;;;;;;51.42;31.08;;;;;;;12.87;100.00;102456.59;5092835;28;20486;-44
2022/10/18 02:26:24;;;;;;;48.90;28.80;;;;;;;12.80;100.00;102466.66;5093658;28;20020;-44
2022/10/18 02:28:50;;;;;;;48.90;29.75;;;;;;;12.81;100.00;102462.38;5093357;28;20024;-44
2022/10/18 02:31:20;;;;;;;38.88;27.27;;;;;;;12.73;100.00;102467.19;5092579;28;20020;-44
2022/10/18 02:34:12;;;;;;;48.97;30.13;;;;;;;12.77;100.00;102469.09;5093469;28;20085;-48
2022/10/18 02:36:54;;;;;;;46.28;25.92;;;;;;;12.67;100.00;102461.72;5093103;28;20463;-45
2022/10/18 02:39:28;;;;;;;47.22;28.52;;;;;;;12.68;100.00;102466.09;5092457;28;20025;-44
2022/10/18 02:41:54;;;;;;;43.42;26.70;;;;;;;12.66;100.00;102468.56;5093011;28;20456;-45
2022/10/18 02:44:19;;;;;;;50.33;29.13;;;;;;;12.65;100.00;102473.69;5092587;28;20921;-45
2022/10/18 02:46:46;;;;;;;49.50;31.05;;;;;;;12.70;100.00;102469.63;5093180;28;20032;-47
2022/10/18 02:49:11;;;;;;;60.63;33.05;;;;;;;12.70;100.00;102472.19;5093410;28;20024;-45
2022/10/18 02:51:36;;;;;;;48.58;31.08;;;;;;;12.67;100.00;102479.84;5092241;28;20054;-44
2022/10/18 02:54:02;;;;;;;51.13;28.75;;;;;;;12.66;100.00;102483.22;5093198;28;20028;-45
2022/10/18 02:56:27;;;;;;;49.58;28.35;;;;;;;12.64;100.00;102474.50;5093035;28;20105;-45
2022/10/18 02:58:53;;;;;;;58.63;32.60;;;;;;;12.66;100.00;102470.28;5092174;28;20043;-44
2022/10/18 03:01:18;;;;;;;56.25;31.58;;;;;;;12.71;100.00;102471.41;5093309;28;20028;-47
2022/10/18 03:03:43;;;;;;;47.05;31.08;;;;;;;12.70;100.00;102468.75;5092683;28;20107;-45
2022/10/18 03:06:09;;;;;;;44.33;28.33;;;;;;;12.62;100.00;102474.44;5092328;28;20031;-45
2022/10/18 03:08:35;;;;;;;52.28;30.92;;;;;;;12.67;100.00;102485.00;5092721;28;20028;-45
2022/10/18 03:11:00;;;;;;;50.70;29.70;;;;;;;12.70;100.00;102486.84;5092988;28;20028;-44
2022/10/18 03:13:25;;;;;;;52.53;31.45;;;;;;;12.73;100.00;102474.94;5092378;28;20039;-45
2022/10/18 03:15:51;;;;;;;47.13;28.50;;;;;;;12.65;100.00;102486.63;5092885;28;20035;-44
2022/10/18 03:18:16;;;;;;;32.35;23.17;;;;;;;12.62;100.00;102484.78;5093011;28;20036;-44
2022/10/18 03:20:41;;;;;;;32.28;22.05;;;;;;;12.65;100.00;102487.53;5091795;28;20028;-44
2022/10/18 03:23:07;;;;;;;35.92;24.30;;;;;;;12.66;100.00;102472.88;5092792;28;20039;-45
2022/10/18 03:25:33;;;;;;;37.67;26.15;;;;;;;12.66;100.00;102478.06;5092422;28;20024;-45
2022/10/18 03:27:58;;;;;;;49.53;28.08;;;;;;;12.66;100.00;102478.06;5092165;28;20024;-45
2022/10/18 03:30:23;;;;;;;43.35;26.48;;;;;;;12.64;100.00;102480.56;5093054;28;20047;-44
2022/10/18 03:32:49;;;;;;;40.72;27.50;;;;;;;12.65;100.00;102484.03;5096401;28;20413;-45
2022/10/18 03:35:14;;;;;;;40.45;25.15;;;;;;;12.63;100.00;102488.25;5096206;28;20028;-45
2022/10/18 03:37:39;;;;;;;38.97;24.85;;;;;;;12.57;100.00;102493.13;5096621;28;20402;-44
2022/10/18 03:40:06;;;;;;;46.28;28.65;;;;;;;12.61;100.00;102492.47;5096680;28;20024;-45
2022/10/18 03:42:31;;;;;;;47.65;29.25;;;;;;;12.62;100.00;102487.34;5095344;28;20445;-44
2022/10/18 03:44:56;;;;;;;51.28;31.48;;;;;;;12.64;100.00;102487.44;5096789;28;20023;-44
2022/10/18 03:47:21;;;;;;;47.88;28.90;;;;;;;12.57;100.00;102480.22;5095896;28;20111;-44
2022/10/18 03:49:47;;;;;;;38.30;26.02;;;;;;;12.57;100.00;102482.78;5096401;28;20387;-48
2022/10/18 03:52:12;;;;;;;47.80;27.15;;;;;;;12.53;100.00;102479.16;5096565;28;20055;-44
2022/10/18 03:54:37;;;;;;;49.15;29.10;;;;;;;12.54;100.00;102478.38;5095493;28;20024;-46
2022/10/18 03:57:02;;;;;;;56.42;33.00;;;;;;;12.52;100.00;102482.56;5096630;28;20366;-44
2022/10/18 03:59:28;;;;;;;59.38;34.45;;;;;;;12.54;100.00;102469.69;5096583;28;20031;-46
2022/10/18 04:01:53;;;;;;;64.70;35.50;;;;;;;12.54;100.00;102464.53;5095411;28;20378;-45
2022/10/18 04:04:18;;;;;;;51.88;33.95;;;;;;;12.50;100.00;102466.09;5096268;28;20036;-44
2022/10/18 04:06:44;;;;;;;44.33;27.48;;;;;;;12.42;100.00;102472.59;5096080;28;20099;-45
2022/10/18 04:09:09;;;;;;;53.72;31.92;;;;;;;12.42;100.00;102473.50;5095242;28;20394;-44
2022/10/18 04:11:34;;;;;;;57.70;32.40;;;;;;;12.40;100.00;102467.34;5096094;28;20024;-46
2022/10/18 04:14:00;;;;;;;88.47;40.05;;;;;;;12.46;100.00;102457.31;5096219;28;20066;-44
2022/10/18 04:16:25;;;;;;;66.22;36.95;;;;;;;12.42;100.00;102465.75;5095568;28;20538;-45
2022/10/18 04:18:50;;;;;;;50.38;32.15;;;;;;;12.34;100.00;102456.72;5095783;28;20057;-45
2022/10/18 04:21:16;;;;;;;60.55;33.58;;;;;;;12.32;100.00;102460.94;5095983;28;20469;-44
2022/10/18 04:23:41;;;;;;;68.63;35.33;;;;;;;12.31;100.00;102469.50;5094886;28;20031;-44
2022/10/18 04:26:06;;;;;;;54.95;31.65;;;;;;;12.25;100.00;102482.13;5095831;28;20028;-44
2022/10/18 04:28:33;;;;;;;52.08;33.28;;;;;;;12.30;100.00;102472.88;5095826;28;20112;-45
2022/10/18 04:30:58;;;;;;;51.22;32.90;;;;;;;12.25;100.00;102479.53;5095184;28;20036;-45
2022/10/18 04:33:23;;;;;;;45.42;28.73;;;;;;;12.19;100.00;102493.06;5095790;28;20024;-45
2022/10/18 04:35:51;;;;;;;100.90;27.55;;;;;;;12.11;100.00;102495.25;5095443;28;20016;-44
2022/10/18 04:38:17;;;;;;;37.42;24.63;;;;;;;12.08;100.00;102479.59;5094913;28;20056;-44
2022/10/18 04:40:42;;;;;;;50.78;27.38;;;;;;;12.14;100.00;102476.44;5095262;28;20487;-45
2022/10/18 04:43:07;;;;;;;41.22;26.85;;;;;;;12.09;100.00;102483.06;5094345;28;20048;-45
2022/10/18 04:45:33;;;;;;;38.15;25.65;;;;;;;11.98;100.00;102490.28;5094453;28;20429;-45
2022/10/18 04:47:58;;;;;;;42.05;23.02;;;;;;;11.97;100.00;102486.81;5095435;28;20055;-45
2022/10/18 04:50:23;;;;;;;36.58;22.58;;;;;;;11.92;100.00;102484.78;5095467;28;20059;-45
2022/10/18 04:52:48;;;;;;;28.73;21.25;;;;;;;11.85;100.00;102479.31;5094342;28;20107;-45
2022/10/18 04:55:14;;;;;;;27.67;20.23;;;;;;;11.80;100.00;102482.44;5095269;28;20410;-46
2022/10/18 04:57:39;;;;;;;38.42;22.65;;;;;;;11.85;100.00;102479.31;5094474;28;20044;-45
2022/10/18 05:00:05;;;;;;;57.15;28.05;;;;;;;11.89;100.00;102479.44;5095094;28;20468;-44
2022/10/18 05:02:30;;;;;;;46.85;27.05;;;;;;;11.88;100.00;102482.84;5094870;28;20103;-44
2022/10/18 05:04:56;;;;;;;41.25;27.48;;;;;;;11.92;100.00;102484.78;5094309;28;20529;-44
2022/10/18 05:07:21;;;;;;;58.50;32.90;;;;;;;11.97;100.00;102483.34;5094991;28;20064;-44
2022/10/18 05:09:46;;;;;;;70.03;37.03;;;;;;;11.99;100.00;102492.06;5095144;28;20127;-45
2022/10/18 05:12:11;;;;;;;75.60;38.35;;;;;;;12.03;100.00;102493.97;5094344;28;20040;-45
2022/10/18 05:14:37;;;;;;;49.08;30.50;;;;;;;11.89;100.00;102490.69;5094704;28;20020;-44
2022/10/18 05:17:02;;;;;;;41.13;28.45;;;;;;;11.93;100.00;102499.44;5094966;28;20035;-45
2022/10/18 05:19:27;;;;;;;50.40;29.90;;;;;;;11.92;100.00;102500.28;5094015;28;20020;-46
2022/10/18 05:21:52;;;;;;;65.82;34.67;;;;;;;11.91;100.00;102498.50;5094554;28;20066;-46
2022/10/18 05:24:18;;;;;;;94.25;40.83;;;;;;;11.96;100.00;102502.25;5094590;28;20031;-45
2022/10/18 05:26:43;;;;;;;80.88;37.95;;;;;;;11.92;100.00;102502.88;5093875;28;20024;-46
2022/10/18 05:29:08;;;;;;;80.82;35.03;;;;;;;11.92;100.00;102500.28;5094788;28;20417;-44
2022/10/18 05:31:33;;;;;;;52.28;31.13;;;;;;;11.84;100.00;102505.06;5094437;28;20032;-44
2022/10/18 05:34:00;;;;;;;61.53;31.80;;;;;;;11.84;100.00;102508.53;5093841;28;20036;-45
2022/10/18 05:36:25;;;;;;;100.07;37.95;;;;;;;11.84;100.00;102505.94;5094615;28;20028;-44
2022/10/18 05:38:52;;;;;;;114.07;40.67;;;;;;;11.88;100.00;102508.66;5094103;28;20035;-44
2022/10/18 05:41:17;;;;;;;265.13;52.42;;;;;;;11.90;100.00;102510.53;5093618;28;20123;-46
2022/10/18 05:43:42;;;;;;;84.60;39.47;;;;;;;11.76;100.00;102509.84;5094013;28;20173;-45
2022/10/18 05:46:09;;;;;;;53.40;28.33;;;;;;;11.65;100.00;102516.13;5094460;28;20027;-44
2022/10/18 05:48:34;;;;;;;41.92;25.88;;;;;;;11.57;100.00;102512.25;5093388;28;20025;-46
2022/10/18 05:51:00;;;;;;;43.83;26.00;;;;;;;11.58;100.00;102509.78;5094247;28;20028;-46
2022/10/18 05:53:25;;;;;;;41.60;26.67;;;;;;;11.57;100.00;102507.09;5094003;28;20027;-44
2022/10/18 05:55:51;;;;;;;44.70;25.98;;;;;;;11.50;100.00;102500.72;5093065;28;20164;-45
2022/10/18 05:58:16;;;;;;;37.97;25.95;;;;;;;11.43;100.00;102512.44;5093923;28;20031;-44
2022/10/18 06:00:41;;;;;;;47.63;27.23;;;;;;;11.45;100.00;102515.09;5093815;28;20467;-48
2022/10/18 06:03:06;;;;;;;62.78;30.60;;;;;;;11.49;100.00;102517.00;5093107;28;20036;-46
2022/10/18 06:05:32;;;;;;;61.10;31.63;;;;;;;11.46;100.00;102515.16;5093734;28;20105;-44
2022/10/18 06:07:57;;;;;;;89.10;36.15;;;;;;;11.46;100.00;102517.72;5093717;28;20038;-44
2022/10/18 06:10:23;;;;;;;80.28;36.05;;;;;;;11.55;100.00;102519.06;5093247;28;20032;-44
2022/10/18 06:12:48;;;;;;;52.13;30.38;;;;;;;11.43;100.00;102525.34;5093569;28;20028;-49
2022/10/18 06:15:14;;;;;;;85.35;35.25;;;;;;;11.48;100.00;102529.03;5093032;28;20092;-44
2022/10/18 06:17:39;;;;;;;73.03;34.13;;;;;;;11.47;100.00;102527.25;5093420;28;20043;-45
2022/10/18 06:20:06;;;;;;;133.57;42.58;;;;;;;11.55;100.00;102525.09;5093685;28;20087;-45
2022/10/18 06:22:31;;;;;;;159.03;49.77;;;;;;;11.61;100.00;102520.25;5092356;28;20048;-44
2022/10/18 06:24:57;;;;;;;93.50;46.72;;;;;;;11.64;100.00;102537.59;5093469;28;20445;-44
2022/10/18 06:27:22;;;;;;;88.90;42.13;;;;;;;11.58;100.00;102534.69;5093699;28;20475;-44
2022/10/18 06:29:47;;;;;;;55.35;32.88;;;;;;;11.53;100.00;102542.22;5092476;28;20024;-45
2022/10/18 06:32:13;;;;;;;79.10;35.03;;;;;;;11.54;100.00;102543.97;5093555;28;20032;-46
2022/10/18 06:34:38;;;;;;;143.13;40.63;;;;;;;11.57;100.00;102545.81;5093265;28;20024;-45
2022/10/18 06:37:03;;;;;;;80.95;39.75;;;;;;;11.60;100.00;102546.88;5092571;28;20028;-45
2022/10/18 06:39:28;;;;;;;98.95;45.20;;;;;;;11.65;100.00;102554.88;5093322;28;20459;-44
2022/10/18 06:41:54;;;;;;;184.27;50.00;;;;;;;11.67;100.00;102550.66;5093001;28;20399;-44
2022/10/18 06:44:20;;;;;;;112.70;46.58;;;;;;;11.71;100.00;102542.28;5092481;28;20031;-45
2022/10/18 06:46:47;;;;;;;73.35;42.70;;;;;;;11.72;100.00;102559.53;5093059;28;20031;-44
2022/10/18 06:49:14;;;;;;;78.40;38.35;;;;;;;11.67;100.00;102563.56;5093248;28;20024;-44
2022/10/18 06:51:40;;;;;;;66.93;35.25;;;;;;;11.64;100.00;102572.03;5092088;28;20024;-45
2022/10/18 06:54:06;;;;;;;67.75;35.97;;;;;;;11.66;100.00;102574.75;5093235;28;20058;-44
2022/10/18 06:56:32;;;;;;;73.63;40.17;;;;;;;11.69;100.00;102580.94;5092779;28;20055;-44
2022/10/18 06:58:57;;;;;;;123.07;46.33;;;;;;;11.71;100.00;102578.44;5092434;28;20034;-45
2022/10/18 07:01:22;;;;;;;69.20;44.67;;;;;;;11.82;100.00;102581.59;5093170;28;20016;-45
2022/10/18 07:03:51;;;;;;;95.15;48.33;;;;;;;11.88;100.00;102587.09;5092715;28;20024;-46
2022/10/18 07:06:17;;;;;;;158.23;51.75;;;;;;;11.86;100.00;102591.25;5091476;28;20497;-44
2022/10/18 07:08:43;;;;;;;115.25;51.25;;;;;;;11.95;100.00;102598.63;5092677;28;20543;-44
2022/10/18 07:11:15;;;;;;;109.18;52.40;;;;;;;12.07;100.00;102604.47;5092895;28;20502;-45
2022/10/18 07:13:40;;;;;;;160.60;55.58;;;;;;;12.04;100.00;102593.94;5092208;28;20103;-44
2022/10/18 07:16:09;;;;;;;157.73;57.90;;;;;;;12.25;100.00;102603.63;5093075;28;20103;-48
2022/10/18 07:18:37;;;;;;;164.85;54.28;;;;;;;12.17;100.00;102605.81;5091947;28;20032;-45
2022/10/18 07:21:08;;;;;;;122.40;50.05;;;;;;;12.21;100.00;102609.44;5092819;28;20443;-44
2022/10/18 07:23:34;;;;;;;138.32;51.72;;;;;;;12.20;100.00;102611.16;5092505;28;20479;-45
2022/10/18 07:26:01;;;;;;;144.05;50.90;;;;;;;12.17;100.00;102622.22;5092174;28;20119;-44
2022/10/18 07:28:27;;;;;;;161.10;51.63;;;;;;;12.19;100.00;102624.88;5092708;28;20360;-44
2022/10/18 07:30:52;;;;;;;171.20;54.10;;;;;;;12.24;100.00;102612.19;5092569;28;20048;-44
2022/10/18 07:33:19;;;;;;;189.18;54.03;;;;;;;12.28;100.00;102614.13;5091915;28;20472;-46
2022/10/18 07:35:45;;;;;;;231.63;58.65;;;;;;;12.34;100.00;102619.59;5092433;28;20027;-44
2022/10/18 07:38:10;;;;;;;177.82;54.40;;;;;;;12.31;100.00;102630.66;5092918;28;20028;-46
2022/10/18 07:40:35;;;;;;;204.27;56.47;;;;;;;12.37;100.00;102644.72;5091673;28;20032;-45
2022/10/18 07:43:00;;;;;;;228.00;61.65;;;;;;;12.44;100.00;102647.69;5092477;28;20101;-46
2022/10/18 07:45:26;;;;;;;231.13;60.13;;;;;;;12.47;100.00;102645.28;5092784;28;20379;-45
2022/10/18 07:47:55;;;;;;;238.27;65.75;;;;;;;12.58;100.00;102656.16;5091507;28;20024;-45
2022/10/18 07:50:21;;;;;;;180.02;58.72;;;;;;;12.57;100.00;102654.38;5092735;28;20023;-45
2022/10/18 07:52:46;;;;;;;233.07;66.50;;;;;;;12.65;100.00;102659.94;5092479;28;20016;-45
2022/10/18 07:55:11;;;;;;;251.65;72.03;;;;;;;12.74;100.00;102662.09;5091908;28;20059;-44
2022/10/18 07:57:37;;;;;;;286.65;84.15;;;;;;;12.85;100.00;102661.81;5092434;28;20032;-45
2022/10/18 08:00:02;;;;;;;221.05;73.75;;;;;;;12.81;100.00;102672.84;5092543;28;20043;-45
2022/10/18 08:02:28;;;;;;;185.32;63.45;;;;;;;12.79;100.00;102678.75;5091550;28;20031;-44
2022/10/18 08:04:53;;;;;;;172.82;59.50;;;;;;;12.69;100.00;102679.97;5092143;28;20035;-45
2022/10/18 08:07:18;;;;;;;204.30;65.05;;;;;;;12.80;100.00;102688.28;5092648;28;20020;-47
2022/10/18 08:09:43;;;;;;;221.43;68.15;;;;;;;12.87;100.00;102684.28;5091371;28;20024;-45
2022/10/18 08:12:09;;;;;;;165.30;64.55;;;;;;;12.89;100.00;102680.09;5092551;28;20028;-44
2022/10/18 08:14:34;;;;;;;204.02;70.93;;;;;;;13.02;100.00;102679.88;5091989;28;20031;-44
2022/10/18 08:16:59;;;;;;;208.70;71.72;;;;;;;13.07;100.00;102699.13;5091967;28;20379;-46
2022/10/18 08:19:25;;;;;;;156.70;63.38;;;;;;;13.00;100.00;102692.75;5094884;28;20024;-45
2022/10/18 08:21:50;;;;;;;199.35;68.25;;;;;;;13.10;100.00;102694.06;5095098;28;20070;-46
2022/10/18 08:24:15;;;;;;;147.43;62.67;;;;;;;13.06;100.00;102697.31;5095925;28;20028;-44
2022/10/18 08:26:40;;;;;;;158.80;61.72;;;;;;;13.12;100.00;102697.63;5095663;28;20028;-44
2022/10/18 08:29:06;;;;;;;150.25;58.55;;;;;;;13.12;100.00;102702.81;5095196;28;20021;-47
2022/10/18 08:31:31;;;;;;;140.38;59.03;;;;;;;13.20;100.00;102699.72;5095508;28;20073;-45
2022/10/18 08:33:56;;;;;;;148.05;58.13;;;;;;;13.22;100.00;102700.66;5095542;28;20116;-46
2022/10/18 08:36:22;;;;;;;141.88;58.83;;;;;;;13.26;100.00;102695.72;5094995;28;20028;-45
2022/10/18 08:38:48;;;;;;;151.25;61.40;;;;;;;13.44;100.00;102711.28;5095011;28;20024;-46
2022/10/18 08:41:47;;;;;;;149.50;63.13;;;;;;;13.49;100.00;102720.16;5095404;28;20043;-45
2022/10/18 08:44:22;;;;;;;130.95;58.20;;;;;;;13.54;100.00;102719.50;5094570;28;20028;-45
2022/10/18 08:46:51;;;;;;;123.28;57.08;;;;;;;13.53;100.00;102720.31;5095433;28;20020;-46
2022/10/18 08:49:28;;;;;;;104.30;51.72;;;;;;;13.45;100.00;102718.25;5095574;28;20032;-44
2022/10/18 08:51:55;;;;;;;502.27;95.95;;;;;;;14.10;100.00;102721.22;5094321;28;20475;-46
2022/10/18 08:54:36;;;;;;;127.90;61.53;;;;;;;13.90;100.00;102728.09;5095316;28;20020;-45
2022/10/18 08:57:09;;;;;;;108.25;52.92;;;;;;;14.00;100.00;102719.91;5094439;28;20478;-44
2022/10/18 08:59:38;;;;;;;291.58;79.88;;;;;;;14.76;100.00;102715.47;5095240;28;20069;-44
2022/10/18 09:02:34;;;;;;;178.10;82.30;;;;;;;15.10;100.00;102714.25;5095234;28;20028;-45
2022/10/18 09:05:18;;;;;;;151.73;70.18;;;;;;;15.22;100.00;102713.00;5094348;28;20036;-46
2022/10/18 09:08:08;;;;;;;81.40;45.42;;;;;;;15.36;100.00;102718.75;5094999;28;20020;-45
2022/10/18 09:10:55;;;;;;;67.82;35.83;;;;;;;15.56;100.00;102728.22;5094836;28;20036;-49
2022/10/18 09:13:43;;;;;;;53.03;27.93;;;;;;;15.93;100.00;102732.28;5094954;28;20024;-44
2022/10/18 09:16:18;;;;;;;43.53;22.90;;;;;;;16.21;100.00;102724.59;5095068;28;20032;-46
2022/10/18 09:19:08;;;;;;;42.40;23.70;;;;;;;16.61;100.00;102731.22;5093904;28;20031;-46
2022/10/18 09:22:02;;;;;;;40.92;20.60;;;;;;;16.90;100.00;102736.53;5094635;28;20102;-47
2022/10/18 09:24:50;;;;;;;33.28;18.48;;;;;;;17.29;100.00;102723.09;5081408;28;20046;-46
2022/10/18 09:27:18;;;;;;;36.67;17.95;;;;;;;17.72;100.00;102723.53;5094055;28;20059;-46
2022/10/18 09:30:06;;;;;;;35.72;18.35;;;;;;;18.10;100.00;102722.06;5093879;28;20024;-46
2022/10/18 09:32:50;;;;;;;29.55;16.13;;;;;;;18.06;99.49;102730.66;5093784;28;20027;-45
2022/10/18 09:35:20;;;;;;;28.83;14.95;;;;;;;18.14;92.04;102722.16;5094739;28;20028;-45
2022/10/18 09:37:46;;;;;;;27.70;13.98;;;;;;;18.69;89.62;102718.41;5094321;28;20020;-45
2022/10/18 09:40:23;;;;;;;30.48;15.10;;;;;;;18.97;92.35;102723.50;5093611;28;20020;-45
2022/10/18 09:43:11;;;;;;;32.00;15.45;;;;;;;19.20;91.15;102734.53;5093880;28;20058;-46
2022/10/18 09:45:43;;;;;;;31.00;14.55;;;;;;;19.08;87.30;102737.69;5094295;28;20024;-44
2022/10/18 09:48:33;;;;;;;33.20;14.63;;;;;;;19.58;86.87;102734.50;5093569;28;20394;-46
2022/10/18 09:51:24;;;;;;;28.00;13.52;;;;;;;20.00;88.98;102733.69;5094193;28;20071;-45
2022/10/18 09:54:06;;;;;;;28.65;13.00;;;;;;;19.97;74.55;102736.22;5093359;28;20024;-47
2022/10/18 09:57:04;;;;;;;24.98;11.63;;;;;;;20.16;79.08;102728.78;5093979;28;20035;-45
2022/10/18 09:59:41;;;;;;;29.50;11.45;;;;;;;20.37;77.33;102728.28;5093482;28;20040;-45
2022/10/18 10:02:13;;;;;;;26.67;10.52;;;;;;;20.34;71.74;102731.75;5093396;28;20051;-44
2022/10/18 10:04:38;;;;;;;26.35;11.10;;;;;;;20.46;69.66;102723.22;5093730;28;20039;-45
2022/10/18 10:07:08;;;;;;;25.98;9.70;;;;;;;20.51;68.19;102723.31;5094049;28;20028;-45
2022/10/18 10:09:56;;;;;;;26.35;9.20;;;;;;;20.97;76.02;102721.53;5093585;28;20066;-46
2022/10/18 10:12:31;;;;;;;31.77;11.63;;;;;;;20.71;67.44;102729.84;5080514;28;20035;-46
2022/10/18 10:15:17;;;;;;;27.75;11.15;;;;;;;20.88;72.44;102734.50;5093174;28;20024;-45
2022/10/18 10:17:43;;;;;;;26.27;11.18;;;;;;;20.86;63.92;102728.31;5093555;28;20027;-46
2022/10/18 10:20:21;;;;;;;28.98;10.82;;;;;;;21.20;69.90;102723.59;5093598;28;20020;-46
2022/10/18 10:22:49;;;;;;;34.53;14.07;;;;;;;20.94;68.01;102720.59;5092652;28;20024;-44
2022/10/18 10:25:31;;;;;;;33.50;14.68;;;;;;;21.66;70.37;102734.78;5093556;28;20106;-45
2022/10/18 10:28:03;;;;;;;29.88;11.38;;;;;;;21.98;62.45;102741.34;5093672;28;20122;-50
2022/10/18 10:30:35;;;;;;;32.50;11.68;;;;;;;21.71;61.00;102743.63;5092655;28;20365;-45
2022/10/18 10:33:01;;;;;;;24.08;9.65;;;;;;;22.01;60.66;102752.78;5093631;28;20059;-45
2022/10/18 10:35:32;;;;;;;24.50;10.40;;;;;;;21.90;61.52;102742.97;5092791;28;20056;-45
2022/10/18 10:37:58;;;;;;;24.85;8.35;;;;;;;21.97;56.91;102742.19;5093418;28;20509;-45
2022/10/18 10:40:26;;;;;;;25.10;6.93;;;;;;;21.86;56.91;102758.69;5092939;28;20088;-45
2022/10/18 10:42:59;;;;;;;23.83;7.45;;;;;;;22.07;58.97;102767.69;5091901;28;20047;-44
2022/10/18 10:45:27;;;;;;;23.80;9.15;;;;;;;22.15;56.29;102765.16;5093532;28;20036;-48
2022/10/18 10:47:54;;;;;;;22.70;9.15;;;;;;;22.18;58.75;102765.19;5092926;28;20482;-50
2022/10/18 10:50:28;;;;;;;27.90;10.32;;;;;;;22.88;59.27;102758.94;5092500;28;20103;-46
2022/10/18 10:52:54;;;;;;;23.65;9.00;;;;;;;22.46;56.25;102762.91;5093046;28;20028;-46
2022/10/18 10:55:26;;;;;;;25.92;7.00;;;;;;;22.88;56.16;102763.31;5093172;28;20024;-48
2022/10/18 10:57:53;;;;;;;26.50;7.32;;;;;;;22.88;54.85;102760.69;5092384;28;20028;-45
2022/10/18 11:00:41;;;;;;;27.05;7.25;;;;;;;23.13;59.93;102765.28;5093341;28;20036;-47
2022/10/18 11:03:17;;;;;;;20.13;6.20;;;;;;;23.01;56.22;102762.56;5093083;28;20491;-50
2022/10/18 11:05:48;;;;;;;21.13;5.65;;;;;;;22.79;52.51;102766.75;5092043;28;20032;-46
2022/10/18 11:08:22;;;;;;;21.50;6.20;;;;;;;22.95;54.76;102766.00;5092908;28;20093;-46
2022/10/18 11:10:59;;;;;;;24.17;7.75;;;;;;;22.60;55.81;102769.19;5092215;28;20091;-45
2022/10/18 11:13:48;;;;;;;25.25;7.13;;;;;;;23.49;57.81;102773.47;5093156;28;20043;-45